| time (UTC) | temp C | wind direction | speed KPH | gust KPH | rain 1hr cm | rain 24hr cm | rain mn cm | humidity % | barometer mb |
| 20260503013029 | 17 | 204 | 3.2 | 8.0 | 0.00 | 0.00 | 0.00 | 40 | 1009.9 |
| 20260503011517 | 17 | 203 | 0.0 | 4.8 | 0.00 | 0.00 | 0.00 | 42 | 1010.2 |
| 20260503010003 | 17 | 239 | 0.0 | 11.3 | 0.00 | 0.00 | 0.00 | 40 | 1010.1 |
| 20260503004502 | 17 | 258 | 4.8 | 29.0 | 0.00 | 0.00 | 0.00 | 40 | 1010.4 |
| 20260503003001 | 18 | 233 | 12.9 | 19.3 | 0.00 | 0.00 | 0.00 | 39 | 1010.5 |
| 20260503001601 | 18 | 191 | 4.8 | 12.9 | 0.00 | 0.00 | 0.00 | 39 | 1010.4 |
| 20260503000107 | 18 | 283 | 1.6 | 19.3 | 0.00 | 0.00 | 0.00 | 38 | 1010.5 |
| 20260502234615 | 18 | 274 | 17.7 | 35.4 | 0.00 | 0.00 | 0.00 | 36 | 1010.7 |
| 20260502233058 | 18 | 276 | 6.4 | 14.5 | 0.00 | 0.00 | 0.00 | 33 | 1010.4 |
| 20260502231555 | 18 | 187 | 4.8 | 16.1 | 0.00 | 0.00 | 0.00 | 34 | 1010.5 |
| 20260502230042 | 18 | 238 | 3.2 | 16.1 | 0.00 | 0.00 | 0.00 | 34 | 1010.6 |
| 20260502224540 | 18 | 218 | 0.0 | 9.7 | 0.00 | 0.00 | 0.00 | 34 | 1010.8 |
| 20260502223046 | 18 | 280 | 3.2 | 14.5 | 0.00 | 0.00 | 0.00 | 33 | 1011.1 |
| 20260502221537 | 18 | 231 | 4.8 | 22.5 | 0.00 | 0.00 | 0.00 | 33 | 1011.1 |
| 20260502220034 | 18 | 251 | 4.8 | 19.3 | 0.00 | 0.00 | 0.00 | 33 | 1011.4 |
| 20260502214537 | 18 | 276 | 12.9 | 24.1 | 0.00 | 0.00 | 0.00 | 33 | 1011.6 |
| 20260502213042 | 19 | 226 | 8.0 | 22.5 | 0.00 | 0.00 | 0.00 | 33 | 1011.7 |
| 20260502211531 | 18 | 259 | 9.7 | 20.9 | 0.00 | 0.00 | 0.00 | 33 | 1012.0 |
| 20260502210015 | 18 | 280 | 11.3 | 22.5 | 0.00 | 0.00 | 0.00 | 33 | 1012.3 |
| 20260502204513 | 18 | 276 | 8.0 | 24.1 | 0.00 | 0.00 | 0.00 | 33 | 1012.6 |
| 20260502203008 | 17 | 181 | 6.4 | 22.5 | 0.00 | 0.00 | 0.00 | 34 | 1012.9 |
| 20260502201520 | 17 | 225 | 11.3 | 25.7 | 0.00 | 0.00 | 0.00 | 33 | 1013.3 |
| 20260502200003 | 17 | 226 | 8.0 | 16.1 | 0.00 | 0.00 | 0.00 | 34 | 1013.7 |
| 20260502194604 | 17 | 262 | 8.0 | 17.7 | 0.00 | 0.00 | 0.00 | 34 | 1014.0 |
| 20260502193113 | 16 | 242 | 11.3 | 19.3 | 0.00 | 0.00 | 0.00 | 36 | 1014.3 |
| 20260502191554 | 16 | 266 | 9.7 | 24.1 | 0.00 | 0.00 | 0.00 | 36 | 1014.6 |
| 20260502190041 | 16 | 283 | 6.4 | 19.3 | 0.00 | 0.00 | 0.00 | 35 | 1014.9 |
| 20260502184537 | 15 | 252 | 11.3 | 22.5 | 0.00 | 0.00 | 0.00 | 34 | 1015.2 |
| 20260502183023 | 15 | 158 | 6.4 | 25.7 | 0.00 | 0.00 | 0.00 | 39 | 1015.5 |
| 20260502181515 | 15 | 252 | 3.2 | 17.7 | 0.00 | 0.00 | 0.00 | 35 | 1015.5 |
| 20260502163058 | 13 | 281 | 6.4 | 12.9 | 0.00 | 0.00 | 0.00 | 39 | 1017.4 |
| 20260502161540 | 12 | 285 | 4.8 | 19.3 | 0.00 | 0.00 | 0.00 | 41 | 1017.6 |
| 20260502151538 | 11 | 255 | 4.8 | 14.5 | 0.00 | 0.00 | 0.00 | 47 | 1018.1 |
| 20260502123013 | 5 | 274 | 4.8 | 11.3 | 0.00 | 0.00 | 0.00 | 65 | 1018.7 |
| 20260502121555 | 5 | 280 | 0.0 | 3.2 | 0.00 | 0.00 | 0.00 | 67 | 1018.6 |
| 20260502114535 | -17 | 0.0 | 0.0 | 0.00 | 0.00 | 0.00 | 1018.5 | ||
| 20260502113037 | -17 | 0.0 | 0.0 | 0.00 | 0.00 | 0.00 | 1018.3 | ||
| 20260502111527 | -17 | 0.0 | 0.0 | 0.00 | 0.00 | 0.00 | 1018.2 | ||
| 20260502110026 | -17 | 0.0 | 0.0 | 0.00 | 0.00 | 0.00 | 1018.3 | ||
| 20260502104532 | -17 | 0.0 | 0.0 | 0.00 | 0.00 | 0.00 | 1018.3 | ||
| 20260502103025 | -17 | 0.0 | 0.0 | 0.00 | 0.00 | 0.00 | 1018.2 | ||
| 20260502101521 | -17 | 0.0 | 0.0 | 0.00 | 0.00 | 0.00 | 1018.2 | ||
| 20260502091501 | 5 | 212 | 1.6 | 8.0 | 0.00 | 0.00 | 0.00 | 58 | 1018.2 |
| 20260502090122 | 6 | 249 | 3.2 | 9.7 | 0.00 | 0.00 | 0.00 | 58 | 1018.2 |
| 20260502070054 | 6 | 211 | 0.0 | 3.2 | 0.00 | 0.00 | 0.00 | 58 | 1018.4 |
| 20260502064537 | 6 | 238 | 0.0 | 3.2 | 0.00 | 0.00 | 0.00 | 56 | 1018.6 |
| 20260502063037 | 6 | 225 | 0.0 | 4.8 | 0.00 | 0.00 | 0.00 | 57 | 1018.6 |
| 20260502061534 | 6 | 235 | 0.0 | 3.2 | 0.00 | 0.00 | 0.00 | 57 | 1018.7 |
| 20260502060040 | 6 | 232 | 0.0 | 1.6 | 0.00 | 0.00 | 0.00 | 56 | 1018.7 |
| 20260502054514 | 6 | 197 | 0.0 | 4.8 | 0.00 | 0.00 | 0.00 | 54 | 1018.7 |
| 20260502053011 | 6 | 266 | 0.0 | 4.8 | 0.00 | 0.00 | 0.00 | 54 | 1018.7 |
| 20260502051552 | 7 | 235 | 0.0 | 3.2 | 0.00 | 0.00 | 0.00 | 52 | 1018.7 |
| 20260502050050 | 7 | 248 | 0.0 | 4.8 | 0.00 | 0.00 | 0.00 | 50 | 1018.7 |
| 20260502044530 | 7 | 232 | 0.0 | 3.2 | 0.00 | 0.00 | 0.00 | 48 | 1018.6 |
| 20260502043030 | 7 | 248 | 0.0 | 4.8 | 0.00 | 0.00 | 0.00 | 47 | 1018.6 |
| 20260502041529 | 7 | 255 | 0.0 | 6.4 | 0.00 | 0.00 | 0.00 | 47 | 1018.5 |
| 20260502040035 | 7 | 252 | 0.0 | 3.2 | 0.00 | 0.00 | 0.00 | 48 | 1018.6 |
| 20260502034516 | 7 | 232 | 0.0 | 3.2 | 0.00 | 0.00 | 0.00 | 49 | 1018.6 |
| 20260502033115 | 7 | 229 | 0.0 | 1.6 | 0.00 | 0.00 | 0.00 | 48 | 1018.6 |
| 20260502031514 | 7 | 226 | 0.0 | 1.6 | 0.00 | 0.00 | 0.00 | 50 | 1018.7 |
| 20260502030012 | 7 | 207 | 0.0 | 1.6 | 0.00 | 0.00 | 0.00 | 50 | 1018.7 |
| 20260502024508 | 8 | 241 | 0.0 | 1.6 | 0.00 | 0.00 | 0.00 | 46 | 1018.6 |
| 20260502023011 | 8 | 243 | 0.0 | 0.0 | 0.00 | 0.00 | 0.00 | 43 | 1018.6 |
| 20260502021552 | 9 | 243 | 0.0 | 1.6 | 0.00 | 0.00 | 0.00 | 40 | 1018.6 |
| 20260502020051 | 10 | 252 | 0.0 | 4.8 | 0.00 | 0.00 | 0.00 | 39 | 1018.4 |
| 20260502014603 | 10 | 248 | 0.0 | 1.6 | 0.00 | 0.00 | 0.00 | 38 | 1018.2 |